< < Back
Terminal Aerodrome Forecast


Current Version              Previous Versions:   1  2  3  4  5  6  7  8  9  

Terminal Aerodrome Forecast

592
FTUS44 KBMX 011138
TAFBHM
TAF
KBHM 011138Z 0112/0212 00000KT P6SM SKC
     FM011700 32005KT P6SM FEW090
     FM020200 32003KT P6SM FEW250=

Latest METAR

952
SAUS70 KWBC 012000 RRK
MTRBHM
METAR KBHM 011953Z 33008KT 10SM FEW075 34/16 A3001 RMK AO2 SLP154
T03440161


USA.gov is the U.S. government's official web portal to all federal, state and local government web resources and services.